Time;durP1;ratioP1;P1;durP2;ratioP2;P2;SDS_P1;SDS_P2;PMS_P1;PMS_P2;Temp;Humidity;BMP_temperature;BMP_pressure;BME280_temperature;BME280_humidity;BME280_pressure;Samples;Min_cycle;Max_cycle;Signal;HPM_P1;HPM_P2
2023/05/31 00:00:21;;;;;;;;;;;;;;;;;;5094508;28;19908;-26
2023/05/31 00:02:47;;;;;;;;;;;;;;;;;;5094320;28;19912;-25
2023/05/31 00:05:13;;;;;;;;;;;;;;;;;;5094543;28;19915;-27
2023/05/31 00:07:39;;;;;;;;;;;;;;;;;;5094799;28;19909;-22
2023/05/31 00:10:05;;;;;;;;;;;;;;;;;;5094506;28;19919;-23
2023/05/31 00:12:31;;;;;;;;;;;;;;;;;;5094392;28;20243;-22
2023/05/31 00:14:57;;;;;;;;;;;;;;;;;;5094489;28;19908;-26
2023/05/31 00:17:22;;;;;;;;;;;;;;;;;;5094424;28;19908;-25
2023/05/31 00:19:48;;;;;;;;;;;;;;;;;;5094709;28;20221;-22
2023/05/31 00:22:16;;;;;;;;;;;;;;;;;;5094489;28;20347;-23
2023/05/31 00:24:42;;;;;;;;;;;;;;;;;;5094164;28;20010;-26
2023/05/31 00:27:08;;;;;;;;;;;;;;;;;;5094325;28;19953;-22
2023/05/31 00:29:34;;;;;;;;;;;;;;;;;;5096587;28;19918;-24
2023/05/31 00:32:00;;;;;;;;;;;;;;;;;;5098171;28;19995;-21
2023/05/31 00:34:26;;;;;;;;;;;;;;;;;;5097857;28;19919;-22
2023/05/31 00:36:52;;;;;;;;;;;;;;;;;;5098069;28;19914;-21
2023/05/31 00:39:18;;;;;;;;;;;;;;;;;;5097836;28;19944;-21
2023/05/31 00:41:44;;;;;;;;;;;;;;;;;;5097933;28;19965;-24
2023/05/31 00:44:10;;;;;;;;;;;;;;;;;;5097675;28;19912;-26
2023/05/31 00:46:36;;;;;;;;;;;;;;;;;;5097734;28;19912;-28
2023/05/31 00:49:02;;;;;;;;;;;;;;;;;;5097930;28;20224;-25
2023/05/31 00:51:28;;;;;;;;;;;;;;;;;;5097627;28;20357;-25
2023/05/31 00:53:54;;;;;;;;;;;;;;;;;;5097880;28;19908;-23
2023/05/31 00:56:21;;;;;;;;;;;;;;;;;;5097823;28;19912;-21
2023/05/31 00:58:47;;;;;;;;;;;;;;;;;;5097558;28;19995;-26
2023/05/31 01:01:13;;;;;;;;;;;;;;;;;;5097601;28;19995;-25
2023/05/31 01:03:39;;;;;;;;;;;;;;;;;;5097297;28;20266;-25
2023/05/31 01:06:05;;;;;;;;;;;;;;;;;;5097826;28;19912;-24
2023/05/31 01:08:31;;;;;;;;;;;;;;;;;;5097496;28;20312;-29
2023/05/31 01:10:57;;;;;;;;;;;;;;;;;;5097245;28;19955;-22
2023/05/31 01:13:23;;;;;;;;;;;;;;;;;;5097092;28;19912;-22
2023/05/31 01:15:49;;;;;;;;;;;;;;;;;;5097412;28;19912;-26
2023/05/31 01:18:18;;;;;;;;;;;;;;;;;;5097016;28;20393;-23
2023/05/31 01:20:46;;;;;;;;;;;;;;;;;;5096995;28;19908;-25
2023/05/31 01:23:13;;;;;;;;;;;;;;;;;;5096899;28;20002;-27
2023/05/31 01:25:39;;;;;;;;;;;;;;;;;;5096836;28;19966;-23
2023/05/31 01:28:06;;;;;;;;;;;;;;;;;;5096914;28;19919;-24
2023/05/31 01:30:32;;;;;;;;;;;;;;;;;;5096848;28;19908;-22
2023/05/31 01:32:58;;;;;;;;;;;;;;;;;;5096748;28;19919;-23
2023/05/31 01:35:24;;;;;;;;;;;;;;;;;;5096762;28;19918;-23
2023/05/31 01:37:50;;;;;;;;;;;;;;;;;;5096725;28;19908;-23
2023/05/31 01:40:16;;;;;;;;;;;;;;;;;;5096921;28;19919;-23
2023/05/31 01:42:41;;;;;;;;;;;;;;;;;;5096510;28;20407;-20
2023/05/31 01:45:07;;;;;;;;;;;;;;;;;;5096588;28;19950;-22
2023/05/31 01:47:33;;;;;;;;;;;;;;;;;;5096738;28;19961;-28
2023/05/31 01:49:59;;;;;;;;;;;;;;;;;;5096484;28;19908;-29
2023/05/31 01:52:25;;;;;;;;;;;;;;;;;;5096257;28;19947;-23
2023/05/31 01:54:51;;;;;;;;;;;;;;;;;;5096632;28;19919;-23
2023/05/31 01:57:17;;;;;;;;;;;;;;;;;;5096338;28;20245;-26
2023/05/31 01:59:43;;;;;;;;;;;;;;;;;;5096555;28;20295;-28
2023/05/31 02:02:09;;;;;;;;;;;;;;;;;;5096132;28;19912;-24
2023/05/31 02:04:35;;;;;;;;;;;;;;;;;;5096176;28;19908;-25
2023/05/31 02:07:02;;;;;;;;;;;;;;;;;;5096184;28;19935;-24
2023/05/31 02:09:28;;;;;;;;;;;;;;;;;;5096050;28;19918;-25
2023/05/31 02:11:54;;;;;;;;;;;;;;;;;;5095926;28;19908;-27
2023/05/31 02:14:20;;;;;;;;;;;;;;;;;;5096505;28;19912;-24
2023/05/31 02:16:46;;;;;;;;;;;;;;;;;;5096265;28;19908;-25
2023/05/31 02:19:13;;;;;;;;;;;;;;;;;;5096149;28;20095;-25
2023/05/31 02:21:39;;;;;;;;;;;;;;;;;;5095800;28;19961;-22
2023/05/31 02:24:05;;;;;;;;;;;;;;;;;;5095715;28;20355;-21
2023/05/31 02:26:31;;;;;;;;;;;;;;;;;;5095794;28;20365;-22
2023/05/31 02:28:57;;;;;;;;;;;;;;;;;;5095778;28;20397;-25
2023/05/31 02:31:23;;;;;;;;;;;;;;;;;;5095947;28;19975;-25
2023/05/31 02:33:49;;;;;;;;;;;;;;;;;;5095875;28;20300;-20
2023/05/31 02:36:15;;;;;;;;;;;;;;;;;;5095582;28;19950;-25
2023/05/31 02:38:41;;;;;;;;;;;;;;;;;;5095559;28;19908;-25
2023/05/31 02:41:07;;;;;;;;;;;;;;;;;;5095522;28;19919;-21
2023/05/31 02:43:33;;;;;;;;;;;;;;;;;;5095401;28;19908;-22
2023/05/31 02:46:01;;;;;;;;;;;;;;;;;;5095487;28;20015;-29
2023/05/31 02:48:27;;;;;;;;;;;;;;;;;;5095419;28;19908;-28
2023/05/31 02:50:53;;;;;;;;;;;;;;;;;;5095626;28;19908;-26
2023/05/31 02:53:19;;;;;;;;;;;;;;;;;;5095039;28;19908;-25
2023/05/31 02:55:45;;;;;;;;;;;;;;;;;;5095346;28;19908;-25
2023/05/31 02:58:11;;;;;;;;;;;;;;;;;;5095291;28;20269;-20
2023/05/31 03:00:37;;;;;;;;;;;;;;;;;;5095208;28;20246;-24
2023/05/31 03:03:03;;;;;;;;;;;;;;;;;;5095189;28;19912;-23
2023/05/31 03:05:29;;;;;;;;;;;;;;;;;;5095115;28;19908;-23
2023/05/31 03:07:55;;;;;;;;;;;;;;;;;;5095393;28;20323;-21
2023/05/31 03:10:21;;;;;;;;;;;;;;;;;;5095004;28;19908;-25
2023/05/31 03:12:47;;;;;;;;;;;;;;;;;;5095012;28;19908;-22
2023/05/31 03:15:13;;;;;;;;;;;;;;;;;;5095061;28;19908;-18
2023/05/31 03:17:39;;;;;;;;;;;;;;;;;;5095272;28;19918;-26
2023/05/31 03:20:06;;;;;;;;;;;;;;;;;;5095043;28;19909;-25
2023/05/31 03:22:32;;;;;;;;;;;;;;;;;;5094850;28;19912;-22
2023/05/31 03:24:58;;;;;;;;;;;;;;;;;;5094865;28;19927;-25
2023/05/31 03:27:24;;;;;;;;;;;;;;;;;;5095219;28;19994;-22
2023/05/31 03:29:50;;;;;;;;;;;;;;;;;;5094923;28;20015;-25
2023/05/31 03:32:16;;;;;;;;;;;;;;;;;;5094783;28;19991;-22
2023/05/31 03:34:42;;;;;;;;;;;;;;;;;;5093872;28;19950;-25
2023/05/31 03:37:07;;;;;;;;;;;;;;;;;;5095087;28;20354;-21
2023/05/31 03:39:34;;;;;;;;;;;;;;;;;;5093748;28;20332;-25
2023/05/31 03:41:59;;;;;;;;;;;;;;;;;;5094846;28;19923;-30
2023/05/31 03:44:25;;;;;;;;;;;;;;;;;;5094910;28;20255;-21
2023/05/31 03:46:52;;;;;;;;;;;;;;;;;;5094641;28;19916;-22
2023/05/31 03:49:18;;;;;;;;;;;;;;;;;;5094838;28;20380;-22
2023/05/31 03:51:44;;;;;;;;;;;;;;;;;;5094764;28;19912;-22
2023/05/31 03:54:10;;;;;;;;;;;;;;;;;;5094385;28;19987;-28
2023/05/31 03:56:35;;;;;;;;;;;;;;;;;;5094740;28;19912;-27
2023/05/31 03:59:01;;;;;;;;;;;;;;;;;;5094334;28;19916;-22
2023/05/31 04:01:27;;;;;;;;;;;;;;;;;;5094535;28;19916;-24
2023/05/31 04:03:53;;;;;;;;;;;;;;;;;;5095195;28;20267;-24
2023/05/31 04:06:20;;;;;;;;;;;;;;;;;;5098557;28;20395;-28
2023/05/31 04:08:46;;;;;;;;;;;;;;;;;;5098183;28;19910;-28
2023/05/31 04:11:12;;;;;;;;;;;;;;;;;;5098120;28;20350;-25
2023/05/31 04:13:38;;;;;;;;;;;;;;;;;;5097776;28;19912;-26
2023/05/31 04:16:04;;;;;;;;;;;;;;;;;;5097808;28;19976;-26
2023/05/31 04:18:30;;;;;;;;;;;;;;;;;;5097780;28;20259;-28
2023/05/31 04:20:56;;;;;;;;;;;;;;;;;;5098107;28;19908;-25
2023/05/31 04:23:22;;;;;;;;;;;;;;;;;;5097880;28;19913;-25
2023/05/31 04:25:48;;;;;;;;;;;;;;;;;;5097880;28;20347;-22
2023/05/31 04:28:15;;;;;;;;;;;;;;;;;;5097560;28;20010;-23
2023/05/31 04:30:41;;;;;;;;;;;;;;;;;;5097925;28;20288;-23
2023/05/31 04:33:07;;;;;;;;;;;;;;;;;;5097360;28;19908;-26
2023/05/31 04:35:33;;;;;;;;;;;;;;;;;;5097440;28;19999;-25
2023/05/31 04:38:02;;;;;;;;;;;;;;;;;;5097523;28;19908;-29
2023/05/31 04:40:31;;;;;;;;;;;;;;;;;;5097228;28;19908;-23
2023/05/31 04:42:57;;;;;;;;;;;;;;;;;;5097459;28;20020;-25
2023/05/31 04:45:24;;;;;;;;;;;;;;;;;;5097148;28;19946;-31
2023/05/31 04:47:50;;;;;;;;;;;;;;;;;;5096986;28;19993;-22
2023/05/31 04:50:16;;;;;;;;;;;;;;;;;;5096917;28;19948;-27
2023/05/31 04:52:43;;;;;;;;;;;;;;;;;;5097037;28;20270;-22
2023/05/31 04:55:09;;;;;;;;;;;;;;;;;;5097458;28;20302;-22
2023/05/31 04:57:35;;;;;;;;;;;;;;;;;;5097114;28;19943;-26
2023/05/31 05:00:00;;;;;;;;;;;;;;;;;;5096999;28;19912;-22
2023/05/31 05:02:26;;;;;;;;;;;;;;;;;;5095842;28;19973;-31
2023/05/31 05:04:52;;;;;;;;;;;;;;;;;;5097682;28;19919;-25
2023/05/31 05:07:20;;;;;;;;;;;;;;;;;;5097166;28;19916;-27
2023/05/31 05:09:46;;;;;;;;;;;;;;;;;;5095751;28;19908;-24
2023/05/31 05:12:12;;;;;;;;;;;;;;;;;;5096602;28;19912;-25
2023/05/31 05:14:38;;;;;;;;;;;;;;;;;;5096274;28;19919;-21
2023/05/31 05:17:04;;;;;;;;;;;;;;;;;;5096424;28;19908;-23
2023/05/31 05:19:31;;;;;;;;;;;;;;;;;;5096425;28;19989;-23
2023/05/31 05:21:57;;;;;;;;;;;;;;;;;;5096533;28;19912;-22
2023/05/31 05:24:22;;;;;;;;;;;;;;;;;;5096311;28;20224;-25
2023/05/31 05:26:48;;;;;;;;;;;;;;;;;;5096425;28;19912;-23
2023/05/31 05:29:14;;;;;;;;;;;;;;;;;;5096075;28;19916;-26
2023/05/31 05:31:40;;;;;;;;;;;;;;;;;;5096215;28;19931;-26
2023/05/31 05:34:07;;;;;;;;;;;;;;;;;;5095960;28;19912;-26
2023/05/31 05:36:33;;;;;;;;;;;;;;;;;;5096193;28;20339;-28
2023/05/31 05:39:03;;;;;;;;;;;;;;;;;;5096044;28;20327;-28
2023/05/31 05:41:30;;;;;;;;;;;;;;;;;;5095655;28;19924;-23
2023/05/31 05:43:55;;;;;;;;;;;;;;;;;;5095897;28;19950;-24
2023/05/31 05:46:21;;;;;;;;;;;;;;;;;;5096973;28;19908;-24
2023/05/31 05:48:47;;;;;;;;;;;;;;;;;;5096008;28;19916;-23
2023/05/31 05:51:13;;;;;;;;;;;;;;;;;;5096135;28;20327;-22
2023/05/31 05:53:39;;;;;;;;;;;;;;;;;;5095683;28;20362;-22
2023/05/31 05:56:05;;;;;;;;;;;;;;;;;;5095640;28;19908;-23
2023/05/31 05:58:31;;;;;;;;;;;;;;;;;;5095734;28;20012;-25
2023/05/31 06:00:57;;;;;;;;;;;;;;;;;;5095695;28;19912;-22
2023/05/31 06:03:24;;;;;;;;;;;;;;;;;;5095635;28;20003;-23
2023/05/31 06:05:49;;;;;;;;;;;;;;;;;;5095529;28;19908;-27
2023/05/31 06:08:16;;;;;;;;;;;;;;;;;;5094379;28;19908;-24
2023/05/31 06:10:42;;;;;;;;;;;;;;;;;;5095979;28;20327;-27
2023/05/31 06:13:08;;;;;;;;;;;;;;;;;;5094943;28;19919;-26
2023/05/31 06:15:34;;;;;;;;;;;;;;;;;;5095166;28;19965;-30
2023/05/31 06:18:00;;;;;;;;;;;;;;;;;;5094693;28;19995;-25
2023/05/31 06:20:26;;;;;;;;;;;;;;;;;;5094050;28;19943;-25
2023/05/31 06:22:52;;;;;;;;;;;;;;;;;;5094468;28;19919;-23
2023/05/31 06:25:19;;;;;;;;;;;;;;;;;;5094529;28;19928;-25
2023/05/31 06:27:45;;;;;;;;;;;;;;;;;;5093932;28;19915;-30
2023/05/31 06:30:11;;;;;;;;;;;;;;;;;;5094864;28;19959;-27
2023/05/31 06:32:37;;;;;;;;;;;;;;;;;;5095516;28;19947;-22
2023/05/31 06:35:03;;;;;;;;;;;;;;;;;;5094745;28;20387;-26
2023/05/31 06:37:29;;;;;;;;;;;;;;;;;;5095204;28;19989;-22
2023/05/31 06:39:55;;;;;;;;;;;;;;;;;;5095207;28;19920;-23
2023/05/31 06:42:21;;;;;;;;;;;;;;;;;;5094645;28;20254;-25
2023/05/31 06:44:47;;;;;;;;;;;;;;;;;;5094873;28;19908;-21
2023/05/31 06:47:13;;;;;;;;;;;;;;;;;;5095213;28;19908;-23
2023/05/31 06:49:39;;;;;;;;;;;;;;;;;;5093879;28;19908;-23
2023/05/31 06:52:06;;;;;;;;;;;;;;;;;;5095061;28;19908;-22
2023/05/31 06:54:32;;;;;;;;;;;;;;;;;;5094898;28;19908;-27
2023/05/31 06:56:58;;;;;;;;;;;;;;;;;;5095047;28;19937;-28
2023/05/31 06:59:24;;;;;;;;;;;;;;;;;;5094570;28;19908;-26
2023/05/31 07:01:52;;;;;;;;;;;;;;;;;;5094479;28;19970;-25
2023/05/31 07:04:18;;;;;;;;;;;;;;;;;;5094529;28;20284;-24
2023/05/31 07:06:44;;;;;;;;;;;;;;;;;;5094988;28;19915;-23
2023/05/31 07:09:10;;;;;;;;;;;;;;;;;;5094639;28;20263;-22
2023/05/31 07:11:36;;;;;;;;;;;;;;;;;;5094558;28;19915;-22
2023/05/31 07:14:03;;;;;;;;;;;;;;;;;;5094456;28;19908;-21
2023/05/31 07:16:29;;;;;;;;;;;;;;;;;;5094494;28;19996;-22
2023/05/31 07:18:55;;;;;;;;;;;;;;;;;;5094635;28;20373;-22
2023/05/31 07:21:21;;;;;;;;;;;;;;;;;;5093253;28;19976;-24
2023/05/31 07:23:47;;;;;;;;;;;;;;;;;;5093883;28;19920;-28
2023/05/31 07:26:14;;;;;;;;;;;;;;;;;;5094339;28;19998;-23
2023/05/31 07:28:40;;;;;;;;;;;;;;;;;;5094208;28;19928;-21
2023/05/31 07:31:06;;;;;;;;;;;;;;;;;;5094274;28;19908;-24
2023/05/31 07:33:32;;;;;;;;;;;;;;;;;;5094029;28;19973;-26
2023/05/31 07:35:58;;;;;;;;;;;;;;;;;;5094498;28;19989;-21
2023/05/31 07:38:24;;;;;;;;;;;;;;;;;;5096241;28;19908;-26
2023/05/31 07:40:50;;;;;;;;;;;;;;;;;;5098590;28;20283;-23
2023/05/31 07:43:20;;;;;;;;;;;;;;;;;;5098365;28;20006;-26
2023/05/31 07:45:46;;;;;;;;;;;;;;;;;;5099145;28;19908;-27
2023/05/31 07:48:12;;;;;;;;;;;;;;;;;;5098313;28;19915;-26
2023/05/31 07:50:38;;;;;;;;;;;;;;;;;;5098324;28;20398;-24
2023/05/31 07:53:04;;;;;;;;;;;;;;;;;;5097286;28;20340;-25
2023/05/31 07:55:30;;;;;;;;;;;;;;;;;;5098076;28;19994;-23
2023/05/31 07:57:56;;;;;;;;;;;;;;;;;;5097971;28;19940;-28
2023/05/31 08:00:22;;;;;;;;;;;;;;;;;;5097977;28;20036;-22
2023/05/31 08:02:48;;;;;;;;;;;;;;;;;;5098258;28;20023;-23
2023/05/31 08:05:14;;;;;;;;;;;;;;;;;;5097780;28;19998;-24
2023/05/31 08:07:40;;;;;;;;;;;;;;;;;;5097906;28;19908;-22
2023/05/31 08:10:06;;;;;;;;;;;;;;;;;;5097517;28;20270;-26
2023/05/31 08:12:32;;;;;;;;;;;;;;;;;;5097513;28;20006;-27
2023/05/31 08:14:58;;;;;;;;;;;;;;;;;;5097901;28;20394;-28
2023/05/31 08:17:24;;;;;;;;;;;;;;;;;;5097666;28;19929;-24
2023/05/31 08:19:50;;;;;;;;;;;;;;;;;;5097837;28;19912;-24
2023/05/31 08:22:16;;;;;;;;;;;;;;;;;;5097429;28;20219;-24
2023/05/31 08:24:42;;;;;;;;;;;;;;;;;;5097496;28;20373;-24
2023/05/31 08:27:08;;;;;;;;;;;;;;;;;;5097529;28;20012;-22
2023/05/31 08:29:34;;;;;;;;;;;;;;;;;;5097384;28;19919;-26
2023/05/31 08:32:00;;;;;;;;;;;;;;;;;;5097455;28;19912;-26
2023/05/31 08:34:27;;;;;;;;;;;;;;;;;;5096209;28;19957;-33
2023/05/31 08:36:53;;;;;;;;;;;;;;;;;;5096158;28;19919;-24
2023/05/31 08:39:19;;;;;;;;;;;;;;;;;;5097218;28;20261;-28
2023/05/31 08:41:45;;;;;;;;;;;;;;;;;;5096693;28;20322;-25
2023/05/31 08:44:11;;;;;;;;;;;;;;;;;;5096147;28;19958;-30
2023/05/31 08:46:37;;;;;;;;;;;;;;;;;;5096122;28;19969;-24
2023/05/31 08:49:03;;;;;;;;;;;;;;;;;;5095840;28;19908;-23
2023/05/31 08:51:29;;;;;;;;;;;;;;;;;;5095671;28;20260;-28
2023/05/31 08:53:55;;;;;;;;;;;;;;;;;;5095957;28;19915;-22
2023/05/31 08:56:21;;;;;;;;;;;;;;;;;;5095833;28;19912;-23
2023/05/31 08:58:47;;;;;;;;;;;;;;;;;;5094919;28;19908;-22
2023/05/31 09:01:13;;;;;;;;;;;;;;;;;;5095759;28;19977;-24
2023/05/31 09:03:39;;;;;;;;;;;;;;;;;;5094598;28;19908;-24
2023/05/31 09:06:05;;;;;;;;;;;;;;;;;;5096036;28;19973;-20
2023/05/31 09:08:33;;;;;;;;;;;;;;;;;;5095605;28;19994;-22
2023/05/31 09:10:59;;;;;;;;;;;;;;;;;;5096146;28;20013;-21
2023/05/31 09:13:25;;;;;;;;;;;;;;;;;;5095684;28;19968;-29
2023/05/31 09:15:51;;;;;;;;;;;;;;;;;;5095701;28;20314;-27
2023/05/31 09:18:17;;;;;;;;;;;;;;;;;;5096019;28;19908;-26
2023/05/31 09:20:43;;;;;;;;;;;;;;;;;;5095724;28;19908;-20
2023/05/31 09:23:09;;;;;;;;;;;;;;;;;;5095736;28;19912;-29
2023/05/31 09:25:35;;;;;;;;;;;;;;;;;;5095155;28;19920;-21
2023/05/31 09:28:01;;;;;;;;;;;;;;;;;;5096606;28;20278;-28
2023/05/31 09:30:27;;;;;;;;;;;;;;;;;;5096253;28;20013;-29
2023/05/31 09:32:55;;;;;;;;;;;;;;;;;;5096298;28;19908;-26
2023/05/31 09:35:25;;;;;;;;;;;;;;;;;;5095029;28;20323;-30
2023/05/31 09:37:51;;;;;;;;;;;;;;;;;;5096335;28;19912;-26
2023/05/31 09:40:17;;;;;;;;;;;;;;;;;;5095266;28;20015;-27
2023/05/31 09:42:43;;;;;;;;;;;;;;;;;;5096323;28;19912;-28
2023/05/31 09:45:09;;;;;;;;;;;;;;;;;;5096289;28;20200;-24
2023/05/31 09:47:35;;;;;;;;;;;;;;;;;;5096086;28;19908;-22
2023/05/31 09:50:01;;;;;;;;;;;;;;;;;;5095973;28;19939;-27
2023/05/31 09:52:48;;;;;;;;;;;;;;;;;;5094839;28;19908;-26
2023/05/31 09:55:13;;;;;;;;;;;;;;;;;;5095175;28;20227;-22
2023/05/31 09:57:43;;;;;;;;;;;;;;;;;;5096111;28;20006;-23
2023/05/31 10:00:14;;;;;;;;;;;;;;;;;;5095633;28;19908;-24
2023/05/31 10:02:42;;;;;;;;;;;;;;;;;;5094273;28;20354;-27
2023/05/31 10:05:08;;;;;;;;;;;;;;;;;;5095600;28;19908;-22
2023/05/31 10:07:34;;;;;;;;;;;;;;;;;;5095375;28;19919;-27
2023/05/31 10:10:00;;;;;;;;;;;;;;;;;;5095760;28;19912;-25
2023/05/31 10:12:26;;;;;;;;;;;;;;;;;;5095251;28;20227;-29
2023/05/31 10:14:52;;;;;;;;;;;;;;;;;;5095390;28;19908;-26
2023/05/31 10:17:18;;;;;;;;;;;;;;;;;;5094214;28;19916;-28
2023/05/31 10:19:44;;;;;;;;;;;;;;;;;;5094159;28;19918;-25
2023/05/31 10:22:11;;;;;;;;;;;;;;;;;;5095002;28;19912;-26
2023/05/31 10:24:37;;;;;;;;;;;;;;;;;;5093996;28;20007;-23
2023/05/31 10:27:03;;;;;;;;;;;;;;;;;;5095703;28;19951;-21
2023/05/31 10:29:29;;;;;;;;;;;;;;;;;;5095354;28;19919;-25
2023/05/31 10:31:55;;;;;;;;;;;;;;;;;;5095074;28;19908;-26
2023/05/31 10:34:21;;;;;;;;;;;;;;;;;;5095138;28;20238;-25
2023/05/31 10:36:47;;;;;;;;;;;;;;;;;;5095087;28;19919;-23
2023/05/31 10:39:13;;;;;;;;;;;;;;;;;;5094987;28;19908;-22
2023/05/31 10:41:39;;;;;;;;;;;;;;;;;;5095222;28;19928;-25
2023/05/31 10:44:05;;;;;;;;;;;;;;;;;;5094784;28;19919;-23
2023/05/31 10:46:31;;;;;;;;;;;;;;;;;;5094758;28;19915;-23
2023/05/31 10:48:57;;;;;;;;;;;;;;;;;;5095073;28;19958;-30
2023/05/31 10:51:23;;;;;;;;;;;;;;;;;;5095156;28;19966;-27
2023/05/31 10:53:49;;;;;;;;;;;;;;;;;;5094640;28;20322;-24
2023/05/31 10:56:15;;;;;;;;;;;;;;;;;;5094803;28;19999;-24
2023/05/31 10:58:42;;;;;;;;;;;;;;;;;;5094155;28;20239;-26
2023/05/31 11:01:08;;;;;;;;;;;;;;;;;;5094430;28;19912;-28
2023/05/31 11:03:34;;;;;;;;;;;;;;;;;;5094276;28;20394;-23
2023/05/31 11:06:00;;;;;;;;;;;;;;;;;;5094083;28;19912;-28
2023/05/31 11:08:26;;;;;;;;;;;;;;;;;;5094497;28;19916;-26
2023/05/31 11:10:53;;;;;;;;;;;;;;;;;;5094134;28;19908;-23
2023/05/31 11:13:19;;;;;;;;;;;;;;;;;;5093641;28;19919;-25
2023/05/31 11:15:45;;;;;;;;;;;;;;;;;;5094005;28;19920;-20
2023/05/31 11:18:11;;;;;;;;;;;;;;;;;;5092780;28;19908;-27
2023/05/31 11:20:37;;;;;;;;;;;;;;;;;;5093860;28;19912;-23
2023/05/31 11:23:05;;;;;;;;;;;;;;;;;;5093321;28;21336;-28
2023/05/31 11:25:31;;;;;;;;;;;;;;;;;;5094319;28;19922;-24
2023/05/31 11:27:57;;;;;;;;;;;;;;;;;;5094485;28;20246;-26
2023/05/31 11:30:23;;;;;;;;;;;;;;;;;;5094385;28;19935;-26
2023/05/31 11:32:49;;;;;;;;;;;;;;;;;;5094318;28;20357;-25
2023/05/31 11:35:15;;;;;;;;;;;;;;;;;;5094394;28;19908;-23
2023/05/31 11:37:42;;;;;;;;;;;;;;;;;;5094343;28;19912;-24
2023/05/31 11:40:08;;;;;;;;;;;;;;;;;;5093643;28;19965;-26
2023/05/31 11:42:34;;;;;;;;;;;;;;;;;;5094048;28;19916;-23
2023/05/31 11:45:00;;;;;;;;;;;;;;;;;;5094588;28;19919;-30
2023/05/31 11:47:26;;;;;;;;;;;;;;;;;;5094413;28;20335;-27
2023/05/31 11:49:52;;;;;;;;;;;;;;;;;;5094386;28;19908;-25
2023/05/31 11:52:18;;;;;;;;;;;;;;;;;;5094003;28;19988;-22
2023/05/31 11:54:45;;;;;;;;;;;;;;;;;;5094086;28;19914;-22
2023/05/31 11:57:11;;;;;;;;;;;;;;;;;;5094268;28;19973;-20
2023/05/31 11:59:37;;;;;;;;;;;;;;;;;;5093897;28;20350;-27
2023/05/31 12:02:03;;;;;;;;;;;;;;;;;;5094138;28;19973;-27
2023/05/31 12:04:29;;;;;;;;;;;;;;;;;;5093867;28;20197;-27
2023/05/31 12:06:55;;;;;;;;;;;;;;;;;;5094037;28;20258;-21
2023/05/31 12:09:21;;;;;;;;;;;;;;;;;;5094260;28;19961;-28
2023/05/31 12:11:47;;;;;;;;;;;;;;;;;;5093693;28;20044;-28
2023/05/31 12:14:13;;;;;;;;;;;;;;;;;;5094026;28;20010;-26
2023/05/31 12:16:39;;;;;;;;;;;;;;;;;;5093864;28;19904;-26
2023/05/31 12:19:05;;;;;;;;;;;;;;;;;;5094196;28;19919;-25
2023/05/31 12:21:32;;;;;;;;;;;;;;;;;;5093831;28;19912;-24
2023/05/31 12:23:58;;;;;;;;;;;;;;;;;;5092873;28;20030;-29
2023/05/31 12:26:27;;;;;;;;;;;;;;;;;;5096851;28;19908;-28
2023/05/31 12:28:52;;;;;;;;;;;;;;;;;;5097032;28;19970;-23
2023/05/31 12:31:18;;;;;;;;;;;;;;;;;;5097375;28;19908;-25
2023/05/31 12:33:44;;;;;;;;;;;;;;;;;;5097171;28;19919;-28
2023/05/31 12:36:10;;;;;;;;;;;;;;;;;;5097386;28;20011;-22
2023/05/31 12:38:38;;;;;;;;;;;;;;;;;;5097105;28;19920;-25
2023/05/31 12:41:04;;;;;;;;;;;;;;;;;;5097496;28;20319;-21
2023/05/31 12:43:30;;;;;;;;;;;;;;;;;;5096947;28;19932;-22
2023/05/31 12:45:56;;;;;;;;;;;;;;;;;;5097323;28;19941;-23
2023/05/31 12:48:23;;;;;;;;;;;;;;;;;;5097345;28;19915;-28
2023/05/31 12:50:48;;;;;;;;;;;;;;;;;;5096807;28;19908;-25
2023/05/31 12:53:15;;;;;;;;;;;;;;;;;;5095896;28;20011;-23
2023/05/31 12:55:41;;;;;;;;;;;;;;;;;;5097613;28;20000;-30
2023/05/31 12:58:07;;;;;;;;;;;;;;;;;;5097253;28;19931;-23
2023/05/31 13:00:33;;;;;;;;;;;;;;;;;;5096588;28;19945;-26
2023/05/31 13:02:59;;;;;;;;;;;;;;;;;;5096724;28;19919;-25
2023/05/31 13:05:25;;;;;;;;;;;;;;;;;;5096239;28;19920;-22
2023/05/31 13:07:52;;;;;;;;;;;;;;;;;;5097003;28;19908;-28
2023/05/31 13:10:18;;;;;;;;;;;;;;;;;;5096751;28;19973;-27
2023/05/31 13:12:44;;;;;;;;;;;;;;;;;;5096738;28;19912;-20
2023/05/31 13:15:10;;;;;;;;;;;;;;;;;;5097203;28;19909;-23
2023/05/31 13:17:36;;;;;;;;;;;;;;;;;;5096793;28;19912;-27
2023/05/31 13:20:04;;;;;;;;;;;;;;;;;;5096401;28;20246;-23
2023/05/31 13:22:30;;;;;;;;;;;;;;;;;;5096473;28;19988;-23
2023/05/31 13:24:56;;;;;;;;;;;;;;;;;;5096468;28;20343;-28
2023/05/31 13:27:22;;;;;;;;;;;;;;;;;;5096649;28;19908;-26
2023/05/31 13:29:48;;;;;;;;;;;;;;;;;;5096959;28;19913;-23
2023/05/31 13:32:14;;;;;;;;;;;;;;;;;;5095610;28;19912;-28
2023/05/31 13:34:40;;;;;;;;;;;;;;;;;;5096604;28;20239;-26
2023/05/31 13:37:06;;;;;;;;;;;;;;;;;;5095975;28;19994;-23
2023/05/31 13:39:32;;;;;;;;;;;;;;;;;;5096396;28;19908;-23
2023/05/31 13:41:58;;;;;;;;;;;;;;;;;;5096366;28;19916;-26
2023/05/31 13:44:24;;;;;;;;;;;;;;;;;;5095287;28;19908;-20
2023/05/31 13:46:50;;;;;;;;;;;;;;;;;;5095208;28;20299;-28
2023/05/31 13:49:16;;;;;;;;;;;;;;;;;;5096988;28;19950;-25
2023/05/31 13:51:42;;;;;;;;;;;;;;;;;;5096041;28;19904;-25
2023/05/31 13:54:08;;;;;;;;;;;;;;;;;;5096078;28;19908;-28
2023/05/31 13:56:34;;;;;;;;;;;;;;;;;;5095195;28;19904;-23
2023/05/31 13:59:00;;;;;;;;;;;;;;;;;;5096055;28;19962;-26
2023/05/31 14:01:26;;;;;;;;;;;;;;;;;;5096194;28;19912;-25
2023/05/31 14:03:54;;;;;;;;;;;;;;;;;;5095880;28;19934;-25
2023/05/31 14:06:20;;;;;;;;;;;;;;;;;;5095659;28;20396;-23
2023/05/31 14:08:46;;;;;;;;;;;;;;;;;;5095397;28;19908;-25
2023/05/31 14:11:15;;;;;;;;;;;;;;;;;;5095566;28;19908;-22
2023/05/31 14:13:41;;;;;;;;;;;;;;;;;;5095419;28;19912;-24
2023/05/31 14:16:07;;;;;;;;;;;;;;;;;;5095631;28;19918;-24
2023/05/31 14:18:33;;;;;;;;;;;;;;;;;;5095217;28;19920;-22
2023/05/31 14:20:59;;;;;;;;;;;;;;;;;;5095770;28;20355;-25
2023/05/31 14:23:25;;;;;;;;;;;;;;;;;;5095178;28;20258;-23
2023/05/31 14:25:51;;;;;;;;;;;;;;;;;;5095247;28;19916;-25
2023/05/31 14:28:17;;;;;;;;;;;;;;;;;;5095197;28;19908;-24
2023/05/31 14:30:43;;;;;;;;;;;;;;;;;;5095226;28;19908;-27
2023/05/31 14:33:10;;;;;;;;;;;;;;;;;;5094087;28;20365;-24
2023/05/31 14:35:36;;;;;;;;;;;;;;;;;;5095209;28;20291;-25
2023/05/31 14:38:02;;;;;;;;;;;;;;;;;;5095203;28;19908;-25
2023/05/31 14:40:28;;;;;;;;;;;;;;;;;;5095151;28;20007;-28
2023/05/31 14:42:55;;;;;;;;;;;;;;;;;;5095153;28;19951;-28
2023/05/31 14:45:21;;;;;;;;;;;;;;;;;;5095121;28;19923;-23
2023/05/31 14:47:47;;;;;;;;;;;;;;;;;;5094487;28;19916;-21
2023/05/31 14:50:13;;;;;;;;;;;;;;;;;;5095124;28;19942;-27
2023/05/31 14:52:39;;;;;;;;;;;;;;;;;;5094996;28;19908;-24
2023/05/31 14:55:05;;;;;;;;;;;;;;;;;;5094783;28;20219;-25
2023/05/31 14:57:31;;;;;;;;;;;;;;;;;;5094704;28;19913;-25
2023/05/31 14:59:57;;;;;;;;;;;;;;;;;;5094881;28;19931;-22
2023/05/31 15:02:23;;;;;;;;;;;;;;;;;;5094428;28;19912;-22
2023/05/31 15:04:49;;;;;;;;;;;;;;;;;;5094782;28;19974;-24
2023/05/31 15:07:15;;;;;;;;;;;;;;;;;;5094704;28;19908;-31
2023/05/31 15:09:41;;;;;;;;;;;;;;;;;;5094597;28;19916;-21
2023/05/31 15:12:07;;;;;;;;;;;;;;;;;;5094275;28;20311;-25
2023/05/31 15:14:33;;;;;;;;;;;;;;;;;;5094562;28;19919;-24
2023/05/31 15:16:59;;;;;;;;;;;;;;;;;;5093944;28;19934;-28
2023/05/31 15:19:25;;;;;;;;;;;;;;;;;;5094194;28;20379;-24
2023/05/31 15:21:51;;;;;;;;;;;;;;;;;;5093843;28;19963;-22
2023/05/31 15:24:17;;;;;;;;;;;;;;;;;;5093758;28;19923;-25
2023/05/31 15:26:43;;;;;;;;;;;;;;;;;;5094106;28;19904;-22
2023/05/31 15:29:11;;;;;;;;;;;;;;;;;;5094004;28;19908;-24
2023/05/31 15:31:37;;;;;;;;;;;;;;;;;;5093877;28;19912;-21
2023/05/31 15:34:03;;;;;;;;;;;;;;;;;;5093741;28;19912;-23
2023/05/31 15:36:29;;;;;;;;;;;;;;;;;;5093868;28;19951;-24
2023/05/31 15:38:55;;;;;;;;;;;;;;;;;;5094017;28;19909;-25
2023/05/31 15:41:21;;;;;;;;;;;;;;;;;;5094088;28;19912;-24
2023/05/31 15:43:47;;;;;;;;;;;;;;;;;;5094102;28;19916;-28
2023/05/31 15:46:13;;;;;;;;;;;;;;;;;;5094298;28;19922;-23
2023/05/31 15:48:39;;;;;;;;;;;;;;;;;;5094355;28;20335;-26
2023/05/31 15:51:05;;;;;;;;;;;;;;;;;;5094492;28;19943;-25
2023/05/31 15:53:31;;;;;;;;;;;;;;;;;;5094659;28;19912;-30
2023/05/31 15:55:57;;;;;;;;;;;;;;;;;;5094449;28;19909;-20
2023/05/31 15:58:23;;;;;;;;;;;;;;;;;;5094581;28;20028;-28
2023/05/31 16:00:49;;;;;;;;;;;;;;;;;;5098597;28;19951;-22
2023/05/31 16:03:15;;;;;;;;;;;;;;;;;;5098473;28;19966;-24
2023/05/31 16:05:41;;;;;;;;;;;;;;;;;;5097427;28;19957;-26
2023/05/31 16:08:07;;;;;;;;;;;;;;;;;;5098300;28;19927;-22
2023/05/31 16:10:33;;;;;;;;;;;;;;;;;;5098297;28;19914;-21
2023/05/31 16:12:59;;;;;;;;;;;;;;;;;;5098064;28;20334;-25
2023/05/31 16:15:25;;;;;;;;;;;;;;;;;;5097081;28;20231;-23
2023/05/31 16:17:51;;;;;;;;;;;;;;;;;;5097772;28;20102;-27
2023/05/31 16:20:17;;;;;;;;;;;;;;;;;;5098182;28;19913;-23
2023/05/31 16:22:43;;;;;;;;;;;;;;;;;;5097955;28;19922;-23
2023/05/31 16:25:10;;;;;;;;;;;;;;;;;;5097492;28;19920;-24
2023/05/31 16:27:35;;;;;;;;;;;;;;;;;;5098066;28;19914;-19
2023/05/31 16:30:03;;;;;;;;;;;;;;;;;;5097749;28;19999;-24
2023/05/31 16:32:29;;;;;;;;;;;;;;;;;;5097581;28;19908;-23
2023/05/31 16:34:55;;;;;;;;;;;;;;;;;;5097353;28;20404;-22
2023/05/31 16:37:21;;;;;;;;;;;;;;;;;;5097253;28;20339;-25